Time;durP1;ratioP1;P1;durP2;ratioP2;P2;SDS_P1;SDS_P2;PMS_P1;PMS_P2;Temp;Humidity;BMP_temperature;BMP_pressure;BME280_temperature;BME280_humidity;BME280_pressure;Samples;Min_cycle;Max_cycle;Signal;HPM_P1;HPM_P2
2023/10/19 00:00:56;;;;;;;21.53;18.87;;;10.20;99.90;;;;;;5070283;28;20255;-57
2023/10/19 00:03:26;;;;;;;21.43;18.20;;;10.20;99.90;;;;;;5068178;28;20195;-57
2023/10/19 00:05:58;;;;;;;22.53;19.47;;;10.20;99.90;;;;;;5070237;28;20675;-58
2023/10/19 00:08:24;;;;;;;20.10;18.00;;;10.20;99.90;;;;;;5070704;28;20232;-58
2023/10/19 00:11:02;;;;;;;22.03;18.13;;;10.20;99.90;;;;;;5061042;28;20243;-57
2023/10/19 00:13:28;;;;;;;21.03;17.90;;;10.40;99.90;;;;;;5062460;28;20210;-58
2023/10/19 00:15:58;;;;;;;22.73;19.33;;;10.30;99.90;;;;;;5069335;28;20201;-58
2023/10/19 00:18:27;;;;;;;22.60;19.00;;;10.30;99.90;;;;;;5070689;28;20200;-58
2023/10/19 00:21:10;;;;;;;25.43;20.07;;;10.30;99.90;;;;;;5070396;28;20307;-59
2023/10/19 00:23:39;;;;;;;26.77;19.47;;;10.30;99.90;;;;;;5066559;28;20240;-58
2023/10/19 00:26:08;;;;;;;22.23;19.97;;;10.30;99.90;;;;;;5051081;28;20200;-58
2023/10/19 00:28:38;;;;;;;22.43;19.07;;;10.30;99.90;;;;;;5057228;28;20618;-58
2023/10/19 00:31:08;;;;;;;22.63;19.63;;;10.30;99.90;;;;;;5070646;28;20221;-58
2023/10/19 00:33:38;;;;;;;23.77;19.47;;;10.40;99.90;;;;;;5072030;28;20199;-58
2023/10/19 00:36:07;;;;;;;25.23;19.37;;;10.40;99.90;;;;;;5072165;28;20220;-58
2023/10/19 00:38:41;;;;;;;22.17;17.87;;;10.40;99.90;;;;;;5073855;28;20215;-58
2023/10/19 00:41:13;;;;;;;18.83;16.83;;;10.50;99.90;;;;;;5130359;22;20206;-53
2023/10/19 00:43:44;;;;;;;23.57;18.47;;;10.50;99.90;;;;;;5072546;28;20311;-53
2023/10/19 00:46:20;;;;;;;21.37;17.53;;;10.50;99.90;;;;;;5073222;28;20199;-53
2023/10/19 00:48:53;;;;;;;20.87;18.33;;;10.40;99.90;;;;;;5072484;28;20678;-53
2023/10/19 00:51:40;;;;;;;51.00;27.30;;;10.40;99.90;;;;;;5063720;28;20218;-53
2023/10/19 00:54:12;;;;;;;59.53;32.00;;;10.30;99.90;;;;;;5072750;28;20203;-53
2023/10/19 00:56:46;;;;;;;48.13;28.67;;;10.40;99.90;;;;;;5073114;28;20232;-53
2023/10/19 00:59:14;;;;;;;44.93;27.63;;;10.40;99.90;;;;;;5071912;28;20632;-53
2023/10/19 01:01:44;;;;;;;32.60;24.07;;;10.30;99.90;;;;;;5072595;28;20231;-53
2023/10/19 01:04:14;;;;;;;22.23;18.73;;;10.30;99.90;;;;;;5072353;28;20646;-53
2023/10/19 01:06:43;;;;;;;20.20;17.60;;;10.30;99.90;;;;;;5066403;28;20204;-53
2023/10/19 01:09:14;;;;;;;21.67;17.67;;;10.30;99.90;;;;;;5070625;28;20211;-53
2023/10/19 01:11:45;;;;;;;20.60;18.40;;;10.20;99.90;;;;;;5071867;28;20686;-53
2023/10/19 01:14:23;;;;;;;20.33;18.17;;;10.20;99.90;;;;;;5072060;28;20476;-53
2023/10/19 01:16:50;;;;;;;20.00;17.83;;;10.20;99.90;;;;;;5072794;28;20201;-53
2023/10/19 01:19:20;;;;;;;19.67;17.17;;;10.20;99.90;;;;;;5072480;28;20700;-53
2023/10/19 01:21:51;;;;;;;19.80;17.70;;;10.20;99.90;;;;;;5071467;28;20625;-53
2023/10/19 01:24:27;;;;;;;18.90;16.97;;;10.20;99.90;;;;;;5061403;28;20215;-53
2023/10/19 01:26:56;;;;;;;20.07;16.80;;;10.30;99.90;;;;;;5072095;28;20206;-53
2023/10/19 01:29:27;;;;;;;20.70;17.67;;;10.20;99.90;;;;;;5072591;28;20196;-53
2023/10/19 01:32:04;;;;;;;19.73;15.43;;;10.20;99.90;;;;;;5072422;28;20788;-53
2023/10/19 01:34:33;;;;;;;18.73;16.47;;;10.20;99.90;;;;;;5072139;28;20197;-53
2023/10/19 01:37:02;;;;;;;20.93;16.87;;;10.10;99.90;;;;;;5071293;28;20197;-53
2023/10/19 01:39:31;;;;;;;17.57;15.67;;;10.10;99.90;;;;;;5058820;28;20203;-53
2023/10/19 01:41:58;;;;;;;17.63;15.47;;;10.10;99.90;;;;;;5067536;28;20228;-53
2023/10/19 01:44:26;;;;;;;18.07;15.87;;;10.10;99.90;;;;;;5071468;28;20763;-53
2023/10/19 01:46:53;;;;;;;24.17;18.23;;;10.00;99.90;;;;;;5072227;28;20200;-53
2023/10/19 01:49:26;;;;;;;23.63;17.57;;;10.00;99.90;;;;;;5070056;28;20257;-53
2023/10/19 01:51:54;;;;;;;22.33;18.23;;;10.00;99.90;;;;;;5071629;28;20218;-53
2023/10/19 01:54:23;;;;;;;21.53;18.53;;;10.00;99.90;;;;;;5068112;28;20284;-53
2023/10/19 01:56:54;;;;;;;22.00;17.20;;;9.90;99.90;;;;;;5066999;28;20565;-53
2023/10/19 01:59:21;;;;;;;22.03;18.03;;;9.90;99.90;;;;;;5071896;28;20235;-53
2023/10/19 02:01:49;;;;;;;20.50;18.13;;;10.10;99.90;;;;;;5068662;28;20227;-53
2023/10/19 02:04:15;;;;;;;20.47;17.00;;;10.10;99.90;;;;;;5067714;28;20694;-53
2023/10/19 02:06:46;;;;;;;22.33;17.70;;;10.10;99.90;;;;;;5069029;28;20207;-53
2023/10/19 02:09:23;;;;;;;20.47;18.20;;;10.10;99.90;;;;;;5071539;28;20203;-53
2023/10/19 02:11:55;;;;;;;27.63;19.00;;;10.10;99.90;;;;;;5071633;28;20213;-53
2023/10/19 02:14:21;;;;;;;24.93;18.90;;;10.10;99.90;;;;;;5070270;28;20642;-53
2023/10/19 02:16:51;;;;;;;23.23;19.40;;;10.20;99.90;;;;;;5071286;28;20219;-53
2023/10/19 02:19:17;;;;;;;21.30;18.77;;;10.20;99.90;;;;;;5070449;28;20230;-53
2023/10/19 02:21:47;;;;;;;22.43;18.07;;;10.20;99.90;;;;;;5062256;28;20221;-53
2023/10/19 02:24:14;;;;;;;21.33;17.87;;;10.20;99.90;;;;;;5070688;28;20230;-53
2023/10/19 02:26:41;;;;;;;24.07;19.77;;;10.10;99.90;;;;;;5070179;28;20206;-53
2023/10/19 02:29:09;;;;;;;23.03;19.10;;;10.20;99.90;;;;;;5070796;28;20620;-53
2023/10/19 02:31:39;;;;;;;25.67;19.90;;;10.30;99.90;;;;;;5071185;28;20658;-53
2023/10/19 02:34:07;;;;;;;23.00;18.77;;;10.20;99.90;;;;;;5069126;28;20257;-53
2023/10/19 02:36:36;;;;;;;23.03;19.43;;;10.20;99.90;;;;;;5071126;28;20194;-53
2023/10/19 02:39:07;;;;;;;24.73;19.03;;;10.30;99.90;;;;;;5069310;28;20223;-53
2023/10/19 02:41:36;;;;;;;20.97;18.67;;;10.30;99.90;;;;;;5070763;28;20306;-53
2023/10/19 02:44:05;;;;;;;23.97;18.77;;;10.30;99.90;;;;;;5070421;28;20244;-54
2023/10/19 02:46:34;;;;;;;18.47;16.33;;;10.50;99.90;;;;;;5070902;28;20742;-53
2023/10/19 02:49:01;;;;;;;21.37;16.30;;;10.50;99.90;;;;;;5070848;28;20235;-53
2023/10/19 02:51:28;;;;;;;18.60;16.40;;;10.60;99.90;;;;;;5066657;28;20302;-53
2023/10/19 02:53:55;;;;;;;17.57;15.63;;;10.60;99.90;;;;;;5067020;28;20253;-53
2023/10/19 02:56:23;;;;;;;18.83;16.60;;;10.60;99.90;;;;;;5070610;28;20261;-53
2023/10/19 02:58:51;;;;;;;18.77;16.00;;;10.60;99.90;;;;;;5071065;28;20211;-53
2023/10/19 03:01:21;;;;;;;16.60;14.87;;;10.50;99.90;;;;;;5069602;28;20227;-53
2023/10/19 03:03:51;;;;;;;18.50;16.50;;;10.50;99.90;;;;;;5068497;28;20651;-53
2023/10/19 03:06:21;;;;;;;19.67;16.57;;;10.40;99.90;;;;;;5069467;28;20223;-53
2023/10/19 03:08:52;;;;;;;19.43;16.37;;;10.30;99.90;;;;;;5070420;28;20196;-53
2023/10/19 03:11:19;;;;;;;19.40;16.93;;;10.20;99.90;;;;;;5070918;28;20230;-53
2023/10/19 03:13:50;;;;;;;19.30;16.90;;;10.20;99.90;;;;;;5070302;28;20203;-53
2023/10/19 03:16:16;;;;;;;18.97;16.97;;;10.20;99.90;;;;;;5065421;28;20299;-53
2023/10/19 03:18:42;;;;;;;21.17;16.83;;;10.20;99.90;;;;;;5069649;28;20195;-53
2023/10/19 03:21:11;;;;;;;19.67;17.67;;;10.20;99.90;;;;;;5070503;28;20255;-53
2023/10/19 03:23:38;;;;;;;21.10;17.43;;;10.10;99.90;;;;;;5064114;28;20214;-53
2023/10/19 03:26:23;;;;;;;19.60;17.03;;;10.00;99.90;;;;;;5057900;28;20228;-53
2023/10/19 03:28:54;;;;;;;22.90;18.63;;;10.00;99.90;;;;;;5069835;28;20196;-53
2023/10/19 03:31:22;;;;;;;19.03;17.03;;;10.00;99.90;;;;;;5069012;28;20231;-53
2023/10/19 03:33:53;;;;;;;22.30;19.23;;;10.00;99.90;;;;;;5069834;28;20389;-53
2023/10/19 03:36:23;;;;;;;18.77;16.60;;;9.90;99.90;;;;;;5068608;28;20239;-53
2023/10/19 03:38:52;;;;;;;21.20;17.60;;;9.90;99.90;;;;;;5069353;28;20260;-53
2023/10/19 03:41:21;;;;;;;22.53;17.33;;;9.90;99.90;;;;;;5067001;28;20234;-53
2023/10/19 03:43:51;;;;;;;19.50;17.40;;;10.00;99.90;;;;;;5068863;28;20208;-53
2023/10/19 03:46:28;;;;;;;24.80;17.40;;;10.00;99.90;;;;;;5069907;28;20571;-53
2023/10/19 03:48:58;;;;;;;19.27;16.10;;;10.00;99.90;;;;;;5070337;28;20230;-53
2023/10/19 03:51:27;;;;;;;18.10;15.87;;;10.00;99.90;;;;;;5070284;28;20224;-53
2023/10/19 03:54:01;;;;;;;22.10;17.60;;;10.00;99.90;;;;;;5069758;28;20256;-53
2023/10/19 03:56:29;;;;;;;19.87;17.77;;;10.00;99.90;;;;;;5066366;28;20245;-53
2023/10/19 03:58:58;;;;;;;21.50;18.10;;;10.00;99.90;;;;;;5069856;28;20199;-53
2023/10/19 04:01:25;;;;;;;22.47;17.73;;;10.10;99.90;;;;;;5069957;28;20235;-53
2023/10/19 04:03:55;;;;;;;21.13;17.80;;;10.10;99.90;;;;;;5068842;28;20200;-53
2023/10/19 04:06:22;;;;;;;22.47;19.33;;;10.20;99.90;;;;;;5071761;28;20223;-53
2023/10/19 04:08:51;;;;;;;21.07;18.73;;;10.20;99.90;;;;;;5071169;28;20195;-53
2023/10/19 04:11:22;;;;;;;20.07;17.87;;;10.20;99.90;;;;;;5070429;28;20530;-53
2023/10/19 04:13:54;;;;;;;20.93;18.33;;;10.20;99.90;;;;;;5067684;28;20625;-53
2023/10/19 04:16:21;;;;;;;20.03;17.30;;;10.20;99.90;;;;;;5065001;28;20195;-53
2023/10/19 04:18:49;;;;;;;22.50;19.10;;;10.20;99.90;;;;;;5071369;28;20627;-53
2023/10/19 04:21:17;;;;;;;22.03;19.00;;;10.30;99.90;;;;;;5070193;28;20217;-53
2023/10/19 04:23:46;;;;;;;20.30;17.60;;;10.40;99.90;;;;;;5070254;28;20203;-53
2023/10/19 04:26:18;;;;;;;19.77;17.30;;;10.30;99.90;;;;;;5071800;28;20220;-53
2023/10/19 04:28:49;;;;;;;23.27;18.27;;;10.30;99.90;;;;;;5072015;28;20197;-53
2023/10/19 04:31:17;;;;;;;20.43;17.23;;;10.30;99.90;;;;;;5070221;28;20221;-53
2023/10/19 04:33:47;;;;;;;23.53;19.57;;;10.30;99.90;;;;;;5071265;28;20292;-53
2023/10/19 04:36:15;;;;;;;24.20;20.67;;;10.30;99.90;;;;;;5071685;28;20201;-53
2023/10/19 04:38:43;;;;;;;22.50;18.57;;;10.30;99.90;;;;;;5073078;28;20226;-53
2023/10/19 04:41:11;;;;;;;20.50;18.23;;;10.30;99.90;;;;;;5074293;28;20224;-53
2023/10/19 04:43:43;;;;;;;23.93;20.47;;;10.30;99.90;;;;;;5079926;28;20257;-53
2023/10/19 04:46:12;;;;;;;22.47;18.83;;;10.30;99.90;;;;;;5072595;28;20662;-54
2023/10/19 04:48:43;;;;;;;24.60;20.13;;;10.30;99.90;;;;;;5073172;28;20210;-54
2023/10/19 04:51:11;;;;;;;24.90;20.53;;;10.40;99.90;;;;;;5073758;28;20710;-54
2023/10/19 04:53:38;;;;;;;26.40;21.67;;;10.50;99.90;;;;;;5072540;28;20259;-53
2023/10/19 04:56:08;;;;;;;22.50;20.07;;;10.50;99.90;;;;;;5072562;28;20231;-53
2023/10/19 04:58:36;;;;;;;20.63;18.17;;;10.50;99.90;;;;;;5073472;28;20195;-53
2023/10/19 05:01:05;;;;;;;22.87;20.27;;;10.60;99.90;;;;;;5071316;28;20219;-53
2023/10/19 05:03:32;;;;;;;22.13;19.33;;;10.60;99.90;;;;;;5064802;28;20231;-53
2023/10/19 05:06:02;;;;;;;24.30;20.37;;;10.60;99.90;;;;;;5073522;28;20282;-53
2023/10/19 05:08:29;;;;;;;26.73;20.57;;;10.60;99.90;;;;;;5070059;28;20203;-53
2023/10/19 05:11:00;;;;;;;22.93;19.53;;;10.60;99.90;;;;;;5072897;28;20290;-53
2023/10/19 05:13:28;;;;;;;22.43;19.50;;;10.60;99.90;;;;;;5072632;28;20206;-53
2023/10/19 05:15:58;;;;;;;22.43;19.97;;;10.60;99.90;;;;;;5073104;28;20254;-53
2023/10/19 05:18:27;;;;;;;24.80;20.27;;;10.60;99.90;;;;;;5072333;28;20214;-53
2023/10/19 05:20:58;;;;;;;22.80;18.97;;;10.60;99.90;;;;;;5072715;28;20620;-54
2023/10/19 05:23:27;;;;;;;21.57;18.13;;;10.60;99.90;;;;;;5071583;28;20219;-53
2023/10/19 05:26:03;;;;;;;21.47;17.80;;;10.60;99.90;;;;;;5072245;28;20217;-53
2023/10/19 05:28:30;;;;;;;20.83;17.87;;;10.60;99.90;;;;;;5073018;28;20626;-54
2023/10/19 05:31:00;;;;;;;22.83;19.13;;;10.60;99.90;;;;;;5072475;28;20249;-53
2023/10/19 05:33:29;;;;;;;22.20;19.13;;;10.60;99.90;;;;;;5070418;28;20204;-53
2023/10/19 05:36:01;;;;;;;19.87;17.30;;;10.60;99.90;;;;;;5067480;28;20196;-53
2023/10/19 05:38:28;;;;;;;21.43;18.73;;;10.60;99.90;;;;;;5071037;28;20291;-53
2023/10/19 05:40:58;;;;;;;20.70;18.00;;;10.60;99.90;;;;;;5069782;28;20204;-53
2023/10/19 05:43:26;;;;;;;22.50;18.10;;;10.60;99.90;;;;;;5072012;28;21010;-53
2023/10/19 05:45:53;;;;;;;23.83;19.43;;;10.60;99.90;;;;;;5071844;28;20215;-53
2023/10/19 05:48:23;;;;;;;19.87;17.17;;;10.60;99.90;;;;;;5072173;28;20210;-53
2023/10/19 05:50:51;;;;;;;21.30;17.90;;;10.50;99.90;;;;;;5070993;28;20265;-59
2023/10/19 05:53:19;;;;;;;24.30;19.67;;;10.50;99.90;;;;;;5068083;28;20204;-51
2023/10/19 05:55:46;;;;;;;23.73;19.70;;;10.60;99.90;;;;;;5072025;28;20231;-52
2023/10/19 05:58:13;;;;;;;24.30;19.07;;;10.60;99.90;;;;;;5071003;28;20204;-52
2023/10/19 06:00:40;;;;;;;24.27;19.57;;;10.60;99.90;;;;;;5070755;28;20253;-52
2023/10/19 06:03:07;;;;;;;26.47;19.73;;;10.60;99.90;;;;;;5067691;28;20221;-52
2023/10/19 06:05:34;;;;;;;20.17;18.07;;;10.60;99.90;;;;;;5069321;28;20221;-52
2023/10/19 06:08:04;;;;;;;22.02;18.88;;;10.60;99.90;;;;;;5067001;28;20449;-52
2023/10/19 06:10:32;;;;;;;24.50;19.50;;;10.60;99.90;;;;;;5071175;28;20225;-53
2023/10/19 06:12:59;;;;;;;25.67;20.73;;;10.60;99.90;;;;;;5067424;28;20235;-52
2023/10/19 06:15:28;;;;;;;22.03;19.77;;;10.60;99.90;;;;;;5066941;28;20205;-53
2023/10/19 06:17:55;;;;;;;25.63;17.33;;;10.60;99.90;;;;;;5070707;28;20200;-53
2023/10/19 06:20:26;;;;;;;22.57;19.07;;;10.60;99.90;;;;;;5069980;28;20212;-52
2023/10/19 06:22:55;;;;;;;21.43;17.83;;;10.60;99.90;;;;;;5070454;28;20305;-52
2023/10/19 06:25:25;;;;;;;20.23;16.90;;;10.60;99.90;;;;;;5071105;28;20226;-53
2023/10/19 06:27:56;;;;;;;21.93;19.33;;;10.60;99.90;;;;;;5071274;28;20253;-53
2023/10/19 06:30:24;;;;;;;17.63;15.83;;;10.60;99.90;;;;;;5070226;28;20671;-51
2023/10/19 06:32:53;;;;;;;23.77;19.67;;;10.70;99.90;;;;;;5070477;28;20220;-52
2023/10/19 06:35:21;;;;;;;22.33;18.67;;;10.70;99.90;;;;;;5068940;28;20196;-51
2023/10/19 06:37:48;;;;;;;19.80;17.73;;;10.70;99.90;;;;;;5068714;28;20282;-51
2023/10/19 06:40:17;;;;;;;19.57;17.57;;;10.80;99.90;;;;;;5068985;28;20732;-52
2023/10/19 06:42:46;;;;;;;21.10;17.13;;;10.80;99.90;;;;;;5081546;22;20235;-55
2023/10/19 06:45:14;;;;;;;19.30;16.63;;;10.80;99.90;;;;;;5048299;28;20251;-55
2023/10/19 06:47:42;;;;;;;22.13;18.43;;;10.80;99.90;;;;;;5048448;28;20291;-55
2023/10/19 06:50:11;;;;;;;20.97;18.53;;;10.80;99.90;;;;;;5048579;28;20593;-55
2023/10/19 06:52:38;;;;;;;19.97;17.23;;;10.90;99.90;;;;;;5047628;28;20698;-55
2023/10/19 06:55:07;;;;;;;21.07;18.67;;;10.90;99.90;;;;;;5050340;28;20266;-55
2023/10/19 06:57:34;;;;;;;20.50;18.30;;;10.90;99.90;;;;;;5050302;28;20601;-55
2023/10/19 07:00:13;;;;;;;21.53;19.23;;;10.90;99.90;;;;;;5047766;28;20343;-56
2023/10/19 07:02:41;;;;;;;24.83;18.73;;;10.90;99.90;;;;;;5042590;28;20301;-55
2023/10/19 07:05:10;;;;;;;25.93;19.80;;;11.00;99.90;;;;;;5045153;28;20634;-55
2023/10/19 07:07:39;;;;;;;22.87;19.03;;;11.00;99.90;;;;;;5067485;28;20200;-55
2023/10/19 07:10:08;;;;;;;22.77;18.80;;;11.10;99.90;;;;;;5060985;28;20691;-55
2023/10/19 07:12:35;;;;;;;20.63;18.43;;;11.20;99.90;;;;;;5046098;28;20598;-55
2023/10/19 07:15:07;;;;;;;22.13;18.87;;;11.20;99.90;;;;;;5048740;28;20208;-55
2023/10/19 07:17:34;;;;;;;27.63;18.77;;;11.30;99.90;;;;;;5057183;28;20224;-55
2023/10/19 07:20:02;;;;;;;23.67;19.80;;;11.30;99.90;;;;;;5046890;28;20277;-55
2023/10/19 07:22:31;;;;;;;23.40;18.40;;;11.30;99.90;;;;;;5059395;28;20220;-55
2023/10/19 07:24:57;;;;;;;23.80;19.27;;;11.40;99.90;;;;;;5062548;28;20204;-55
2023/10/19 07:27:28;;;;;;;20.30;17.53;;;11.40;99.90;;;;;;5051803;28;20274;-55
2023/10/19 07:29:54;;;;;;;21.10;18.07;;;11.40;99.90;;;;;;5053817;28;20624;-55
2023/10/19 07:32:23;;;;;;;22.10;19.23;;;11.50;99.90;;;;;;5049702;28;20327;-55
2023/10/19 07:34:50;;;;;;;22.33;19.90;;;11.50;99.90;;;;;;5050115;28;20286;-55
2023/10/19 07:37:17;;;;;;;23.90;17.97;;;11.60;99.90;;;;;;5049624;28;20209;-55
2023/10/19 07:39:46;;;;;;;25.13;19.97;;;11.60;99.90;;;;;;5050033;28;20250;-55
2023/10/19 07:42:13;;;;;;;20.73;18.57;;;11.50;99.90;;;;;;5053467;28;20249;-55
2023/10/19 07:44:40;;;;;;;21.67;18.93;;;11.50;99.90;;;;;;5050699;28;20656;-55
2023/10/19 07:47:09;;;;;;;19.30;17.40;;;11.60;99.90;;;;;;5046243;28;20232;-55
2023/10/19 07:49:38;;;;;;;21.07;18.70;;;11.60;99.90;;;;;;5045377;28;20249;-55
2023/10/19 07:52:06;;;;;;;22.43;20.07;;;11.60;99.90;;;;;;5046861;28;20269;-55
2023/10/19 07:54:33;;;;;;;20.10;17.70;;;11.60;99.90;;;;;;5046225;28;20285;-56
2023/10/19 07:57:03;;;;;;;22.50;19.50;;;11.60;99.90;;;;;;5046525;28;20593;-55
2023/10/19 07:59:30;;;;;;;20.17;17.90;;;11.60;99.90;;;;;;5045936;28;20210;-55
2023/10/19 08:01:57;;;;;;;25.70;19.63;;;11.70;99.90;;;;;;5048636;28;20232;-55
2023/10/19 08:04:25;;;;;;;21.10;17.60;;;11.70;99.90;;;;;;5050884;28;20607;-55
2023/10/19 08:06:53;;;;;;;20.47;17.63;;;11.70;99.90;;;;;;5047841;28;20220;-55
2023/10/19 08:09:22;;;;;;;21.70;17.03;;;11.70;99.90;;;;;;5045617;28;20194;-55
2023/10/19 08:11:50;;;;;;;18.73;16.83;;;11.80;99.90;;;;;;5045749;28;20585;-55
2023/10/19 08:14:17;;;;;;;19.47;17.20;;;11.80;99.90;;;;;;5046881;28;20680;-55
2023/10/19 08:16:44;;;;;;;20.97;17.63;;;11.80;99.90;;;;;;5044536;28;20261;-56
2023/10/19 08:19:12;;;;;;;18.97;17.07;;;11.90;99.90;;;;;;5045875;28;20667;-56
2023/10/19 08:21:39;;;;;;;20.43;18.07;;;11.90;99.90;;;;;;5044638;28;20212;-55
2023/10/19 08:24:13;;;;;;;23.97;19.23;;;12.00;99.90;;;;;;5045691;28;20202;-55
2023/10/19 08:26:41;;;;;;;22.73;18.77;;;12.00;99.90;;;;;;5046156;28;20220;-55
2023/10/19 08:29:12;;;;;;;21.53;18.23;;;12.10;99.90;;;;;;5046981;28;20209;-55
2023/10/19 08:31:40;;;;;;;20.10;18.00;;;12.20;99.90;;;;;;5046324;28;20194;-55
2023/10/19 08:34:09;;;;;;;22.90;18.13;;;12.30;99.90;;;;;;5045112;28;20299;-55
2023/10/19 08:36:37;;;;;;;23.07;20.20;;;12.50;99.90;;;;;;5046221;28;20200;-55
2023/10/19 08:39:05;;;;;;;23.33;19.60;;;12.60;99.90;;;;;;5045503;28;20220;-55
2023/10/19 08:41:37;;;;;;;21.58;19.33;;;12.80;99.90;;;;;;5044122;28;20462;-55
2023/10/19 08:44:04;;;;;;;22.27;18.90;;;12.90;99.90;;;;;;5050903;28;20232;-56
2023/10/19 08:46:32;;;;;;;22.70;19.00;;;13.10;99.90;;;;;;5050322;28;20274;-55
2023/10/19 08:49:00;;;;;;;23.70;19.30;;;13.30;99.90;;;;;;5043315;28;20205;-55
2023/10/19 08:51:28;;;;;;;24.97;20.50;;;13.50;99.90;;;;;;5043196;28;20629;-55
2023/10/19 08:53:56;;;;;;;22.27;19.80;;;13.60;99.90;;;;;;5051625;28;20271;-55
2023/10/19 08:56:25;;;;;;;22.27;20.07;;;13.70;99.90;;;;;;5052145;28;20197;-55
2023/10/19 08:58:53;;;;;;;22.50;20.07;;;13.80;99.90;;;;;;5052244;28;20200;-55
2023/10/19 09:01:23;;;;;;;24.67;22.03;;;13.90;99.90;;;;;;5051728;28;20294;-55
2023/10/19 09:03:51;;;;;;;26.70;21.87;;;14.00;99.90;;;;;;5045667;28;20253;-55
2023/10/19 09:06:18;;;;;;;26.20;21.57;;;14.10;99.90;;;;;;5049503;28;20221;-55
2023/10/19 09:08:48;;;;;;;24.20;19.93;;;14.10;99.90;;;;;;5047955;28;20259;-55
2023/10/19 09:11:18;;;;;;;20.17;17.97;;;14.20;99.90;;;;;;5045833;28;20735;-55
2023/10/19 09:13:47;;;;;;;19.73;17.73;;;14.20;99.90;;;;;;5045515;28;20316;-55
2023/10/19 09:16:16;;;;;;;24.90;20.20;;;14.40;99.90;;;;;;5044399;28;20626;-55
2023/10/19 09:18:44;;;;;;;21.50;19.10;;;14.50;99.90;;;;;;5044758;28;20202;-56
2023/10/19 09:21:12;;;;;;;21.00;18.73;;;14.50;99.90;;;;;;5047858;28;20227;-55
2023/10/19 09:23:41;;;;;;;20.43;18.33;;;14.50;99.90;;;;;;5051466;28;20222;-55
2023/10/19 09:26:09;;;;;;;20.37;18.27;;;14.60;99.90;;;;;;5045707;28;20221;-55
2023/10/19 09:28:37;;;;;;;21.43;19.30;;;14.80;99.90;;;;;;5050768;28;20198;-55
2023/10/19 09:31:05;;;;;;;23.87;21.07;;;14.80;99.90;;;;;;5046708;28;20209;-56
2023/10/19 09:33:34;;;;;;;21.77;19.63;;;14.90;99.90;;;;;;5051445;28;20232;-55
2023/10/19 09:36:12;;;;;;;21.00;19.00;;;14.90;99.90;;;;;;5049750;28;20263;-56
2023/10/19 09:38:41;;;;;;;22.23;19.70;;;14.90;99.90;;;;;;5051975;28;20198;-55
2023/10/19 09:41:12;;;;;;;20.90;18.73;;;15.00;99.90;;;;;;5051472;28;20210;-55
2023/10/19 09:43:43;;;;;;;23.97;19.17;;;15.00;99.90;;;;;;5043406;28;20240;-55
2023/10/19 09:46:12;;;;;;;19.07;17.13;;;15.00;99.90;;;;;;5051419;28;20283;-55
2023/10/19 09:48:42;;;;;;;21.57;19.37;;;15.10;99.90;;;;;;5051624;28;20202;-56
2023/10/19 09:51:10;;;;;;;19.63;17.70;;;15.10;99.90;;;;;;5051648;28;20268;-56
2023/10/19 09:53:39;;;;;;;20.77;18.70;;;15.20;99.90;;;;;;5048479;28;20218;-55
2023/10/19 09:56:09;;;;;;;21.00;18.80;;;15.40;99.90;;;;;;5044614;28;20206;-55
2023/10/19 09:58:40;;;;;;;21.03;18.20;;;15.50;99.90;;;;;;5043762;28;20682;-55
2023/10/19 10:01:12;;;;;;;20.83;18.67;;;15.50;99.90;;;;;;5043230;28;20304;-55
2023/10/19 10:03:51;;;;;;;17.53;15.73;;;15.40;99.90;;;;;;5043702;28;20370;-55
2023/10/19 10:06:27;;;;;;;18.63;16.60;;;15.50;99.90;;;;;;5044895;28;20202;-55
2023/10/19 10:08:55;;;;;;;20.00;17.97;;;15.60;99.90;;;;;;5043444;28;20253;-55
2023/10/19 10:11:26;;;;;;;21.50;18.93;;;16.20;99.90;;;;;;5047418;28;20664;-55
2023/10/19 10:13:54;;;;;;;18.87;16.87;;;17.10;99.90;;;;;;5042869;28;20651;-55
2023/10/19 10:16:24;;;;;;;19.30;17.40;;;18.00;99.90;;;;;;5043751;28;20214;-55
2023/10/19 10:18:59;;;;;;;17.43;15.83;;;18.80;99.90;;;;;;5044151;28;20557;-55
2023/10/19 10:21:28;;;;;;;16.53;15.13;;;18.90;99.90;;;;;;5043381;28;20288;-55
2023/10/19 10:23:57;;;;;;;18.80;16.80;;;18.70;99.90;;;;;;5043761;28;21117;-55
2023/10/19 10:26:25;;;;;;;15.90;14.27;;;18.20;99.90;;;;;;5043436;28;20202;-55
2023/10/19 10:29:14;;;;;;;14.57;13.37;;;18.00;99.90;;;;;;5043728;28;20198;-55
2023/10/19 10:31:45;;;;;;;14.83;13.63;;;18.00;99.90;;;;;;5043907;28;20263;-55
2023/10/19 10:34:43;;;;;;;15.83;14.33;;;17.80;99.90;;;;;;5042818;28;20299;-55
2023/10/19 10:37:13;;;;;;;16.03;14.33;;;17.60;99.90;;;;;;5044525;28;20202;-55
2023/10/19 10:39:41;;;;;;;14.73;13.23;;;17.70;99.90;;;;;;5044388;28;20223;-55
2023/10/19 10:42:09;;;;;;;16.47;14.50;;;18.00;99.90;;;;;;5046315;28;20234;-55
2023/10/19 10:44:38;;;;;;;16.73;15.03;;;18.00;99.90;;;;;;5043461;28;20198;-55
2023/10/19 10:47:08;;;;;;;15.50;14.03;;;17.80;99.90;;;;;;5042601;28;20288;-56
2023/10/19 10:49:48;;;;;;;15.47;13.97;;;17.80;99.90;;;;;;5045509;28;20198;-61
2023/10/19 10:52:24;;;;;;;15.87;14.37;;;17.90;99.90;;;;;;5049297;28;20300;-59
2023/10/19 10:54:51;;;;;;;15.07;13.57;;;18.20;99.90;;;;;;5044940;28;20747;-60
2023/10/19 10:57:19;;;;;;;15.03;13.73;;;18.30;99.90;;;;;;5042777;28;20291;-59
2023/10/19 10:59:46;;;;;;;15.50;14.00;;;18.50;99.90;;;;;;5043773;28;20217;-57
2023/10/19 11:02:21;;;;;;;15.90;14.33;;;18.40;99.90;;;;;;5042529;28;20217;-60
2023/10/19 11:04:50;;;;;;;12.30;11.40;;;18.20;99.90;;;;;;5043371;28;20197;-59
2023/10/19 11:07:21;;;;;;;13.70;12.53;;;18.10;99.90;;;;;;5041658;28;20270;-59
2023/10/19 11:09:48;;;;;;;15.40;13.90;;;17.90;99.90;;;;;;5042978;28;20382;-60
2023/10/19 11:12:16;;;;;;;14.43;13.13;;;17.80;99.90;;;;;;5042822;28;20645;-60
2023/10/19 11:14:54;;;;;;;15.17;13.63;;;17.90;99.90;;;;;;5042474;28;20677;-59
2023/10/19 11:17:27;;;;;;;16.30;14.70;;;18.00;99.90;;;;;;5045462;28;20201;-59
2023/10/19 11:19:57;;;;;;;16.23;14.77;;;18.10;99.90;;;;;;5042858;28;20198;-61
2023/10/19 11:22:26;;;;;;;16.00;14.43;;;18.10;99.90;;;;;;5048262;28;20229;-60
2023/10/19 11:24:53;;;;;;;15.40;13.93;;;18.00;99.90;;;;;;5049642;28;20582;-61
2023/10/19 11:27:30;;;;;;;14.97;13.53;;;17.90;99.90;;;;;;5048149;28;20822;-60
2023/10/19 11:29:58;;;;;;;15.10;13.43;;;17.70;99.90;;;;;;5048183;28;20680;-60
2023/10/19 11:32:25;;;;;;;13.73;12.57;;;17.50;99.90;;;;;;5049123;28;20641;-58
2023/10/19 11:34:55;;;;;;;15.00;13.67;;;17.50;99.90;;;;;;5043702;28;20236;-60
2023/10/19 11:37:22;;;;;;;16.95;15.35;;;17.50;99.90;;;;;;5049294;28;20428;-58
2023/10/19 11:39:49;;;;;;;16.60;15.00;;;17.40;99.90;;;;;;5049485;28;20307;-62
2023/10/19 11:42:18;;;;;;;15.30;13.90;;;17.30;99.90;;;;;;5049281;28;20780;-61
2023/10/19 11:44:45;;;;;;;16.50;14.83;;;17.30;99.90;;;;;;5049043;28;20276;-61
2023/10/19 11:47:13;;;;;;;15.70;14.20;;;17.20;99.90;;;;;;5048455;28;20309;-61
2023/10/19 11:49:40;;;;;;;17.07;14.37;;;17.10;99.90;;;;;;5041650;28;20198;-60
2023/10/19 11:52:11;;;;;;;16.97;15.37;;;17.00;99.90;;;;;;5048385;28;20226;-61
2023/10/19 11:54:38;;;;;;;16.10;14.40;;;16.90;99.90;;;;;;5042742;28;20202;-61
2023/10/19 11:57:05;;;;;;;16.47;14.87;;;16.80;99.90;;;;;;5047496;28;20254;-60
2023/10/19 11:59:32;;;;;;;15.27;13.73;;;16.70;99.90;;;;;;5043218;28;20197;-60
2023/10/19 12:02:00;;;;;;;15.17;13.67;;;16.70;99.90;;;;;;5042572;28;20233;-58
2023/10/19 12:04:27;;;;;;;16.30;14.50;;;16.60;99.90;;;;;;5042277;28;20201;-60
2023/10/19 12:06:55;;;;;;;16.87;15.10;;;16.50;99.90;;;;;;5042524;28;20206;-59
2023/10/19 12:09:25;;;;;;;16.13;14.43;;;16.50;99.90;;;;;;5044269;28;20622;-59
2023/10/19 12:11:54;;;;;;;15.97;14.30;;;16.40;99.90;;;;;;5040659;28;20735;-60
2023/10/19 12:14:21;;;;;;;15.13;13.77;;;16.40;99.90;;;;;;5044187;28;20757;-61
2023/10/19 12:16:48;;;;;;;16.67;14.50;;;16.50;99.90;;;;;;5045024;28;20213;-61
2023/10/19 12:19:17;;;;;;;17.37;15.60;;;16.60;99.90;;;;;;5044462;28;20198;-60
2023/10/19 12:21:44;;;;;;;26.67;16.40;;;16.70;99.90;;;;;;5041652;28;20203;-59
2023/10/19 12:24:11;;;;;;;21.07;16.97;;;16.70;99.90;;;;;;5042023;28;20562;-57
2023/10/19 12:26:40;;;;;;;21.93;18.93;;;16.70;99.90;;;;;;5043766;28;20226;-56
2023/10/19 12:29:10;;;;;;;16.97;15.47;;;16.70;99.90;;;;;;5045676;28;20689;-56
2023/10/19 12:31:39;;;;;;;17.17;15.67;;;16.60;99.90;;;;;;5044728;28;20213;-56
2023/10/19 12:34:07;;;;;;;17.73;15.83;;;16.60;99.90;;;;;;5052295;28;20280;-57
2023/10/19 12:36:35;;;;;;;19.83;17.90;;;16.60;99.90;;;;;;5057716;28;20255;-57
2023/10/19 12:39:04;;;;;;;17.83;15.97;;;16.60;99.90;;;;;;5067992;28;20223;-59